Time;durP1;ratioP1;P1;durP2;ratioP2;P2;SDS_P1;SDS_P2;PMS_P1;PMS_P2;Temp;Humidity;BMP_temperature;BMP_pressure;BME280_temperature;BME280_humidity;BME280_pressure;Samples;Min_cycle;Max_cycle;Signal;HPM_P1;HPM_P2
2022/11/05 00:09:31;;;;;;;;;3.75;3.75;;;;;20.49;42.73;101360.78;5059155;28;45303;-51
2022/11/05 00:17:34;;;;;;;;;5.75;3.75;;;;;20.47;42.52;101360.84;5072160;28;45357;-50
2022/11/05 00:20:00;;;;;;;;;5.50;3.00;;;;;20.47;42.52;101360.00;5074177;28;46422;-52
2022/11/05 00:25:13;;;;;;;;;5.00;5.00;;;;;20.47;42.59;101368.75;5072046;28;44809;-49
2022/11/05 00:27:39;;;;;;;;;5.00;3.75;;;;;20.47;42.95;101367.88;5067201;28;45350;-52
2022/11/05 00:30:06;;;;;;;;;5.00;4.50;;;;;20.47;42.83;101365.25;5063022;28;45812;-49
2022/11/05 00:32:32;;;;;;;;;6.25;4.75;;;;;20.46;42.76;101355.66;5063687;28;45353;-51
2022/11/05 00:34:58;;;;;;;;;5.75;4.75;;;;;20.45;42.60;101356.59;5057336;28;45318;-48
2022/11/05 00:37:23;;;;;;;;;5.25;4.50;;;;;20.44;43.00;101361.00;5057204;28;45603;-48
2022/11/05 00:39:48;;;;;;;;;3.75;3.75;;;;;20.45;42.74;101370.59;5056641;28;48150;-53
2022/11/05 00:45:01;;;;;;;;;7.25;4.75;;;;;20.44;42.60;101366.25;5056705;28;45436;-49
2022/11/05 00:50:11;;;;;;;;;9.50;6.00;;;;;20.43;42.55;101382.97;5058211;28;45805;-51
2022/11/05 00:52:56;;;;;;;;;6.00;5.25;;;;;20.43;42.55;101382.97;5064401;28;45260;-48
2022/11/05 00:55:27;;;;;;;;;9.00;5.00;;;;;20.43;42.41;101377.72;5062352;28;45296;-51
2022/11/05 00:57:53;;;;;;;;;4.00;4.00;;;;;20.42;42.84;101377.78;5062069;28;45318;-53
2022/11/05 01:00:19;;;;;;;;;4.75;4.75;;;;;20.42;42.51;101385.69;5063784;28;47265;-50
2022/11/05 01:02:44;;;;;;;;;6.00;4.75;;;;;20.41;42.40;101381.34;5069217;28;45275;-49
2022/11/05 01:05:10;;;;;;;;;4.25;4.00;;;;;20.42;42.74;101378.63;5065599;28;45340;-52
2022/11/05 01:07:35;;;;;;;;;6.50;6.00;;;;;20.43;42.64;101375.09;5061454;28;46064;-50
2022/11/05 01:10:00;;;;;;;;;5.50;5.00;;;;;20.44;42.50;101368.91;5064787;28;46186;-51
2022/11/05 01:12:26;;;;;;;;;6.75;5.75;;;;;20.46;42.74;101368.81;5060079;28;45419;-52
2022/11/05 01:14:51;;;;;;;;;4.00;3.25;;;;;20.48;43.07;101366.97;5059947;28;47870;-50
2022/11/05 01:17:16;;;;;;;;;7.00;5.00;;;;;20.53;42.95;101372.88;5060826;28;47880;-51
2022/11/05 01:19:42;;;;;;;;;4.25;4.25;;;;;20.53;42.57;101365.81;5067653;28;45423;-50
2022/11/05 01:22:07;;;;;;;;;4.50;4.25;;;;;20.58;42.86;101368.25;5062639;28;45270;-51
2022/11/05 01:24:32;;;;;;;;;7.00;5.25;;;;;20.63;43.04;101376.78;5059420;28;45210;-50
2022/11/05 01:26:58;;;;;;;;;5.50;5.25;;;;;20.66;42.65;101370.50;5060172;28;45526;-48
2022/11/05 01:29:23;;;;;;;;;4.50;4.00;;;;;20.70;42.94;101370.28;5059418;28;53424;-50
2022/11/05 01:31:48;;;;;;;;;4.00;4.00;;;;;20.74;42.78;101372.78;5059844;28;45314;-50
2022/11/05 01:34:13;;;;;;;;;4.00;4.00;;;;;20.77;42.69;101359.50;5060332;28;45207;-49
2022/11/05 01:36:39;;;;;;;;;6.00;4.75;;;;;20.81;42.64;101366.31;5062619;28;45581;-52
2022/11/05 01:39:04;;;;;;;;;3.67;3.67;;;;;20.83;42.99;101362.72;5066832;28;57574;-51
2022/11/05 01:41:30;;;;;;;;;3.75;2.00;;;;;20.87;42.53;101366.03;5064803;28;45333;-50
2022/11/05 01:44:00;;;;;;;;;5.00;3.75;;;;;20.89;43.02;101369.44;5059412;28;56804;-48
2022/11/05 01:46:28;;;;;;;;;4.00;4.00;;;;;20.92;42.92;101369.28;5060857;28;45225;-51
2022/11/05 01:49:00;;;;;;;;;4.75;4.00;;;;;20.96;42.89;101367.34;5066085;28;50801;-50
2022/11/05 01:51:27;;;;;;;;;3.25;3.25;;;;;20.99;42.63;101369.84;5061178;28;45868;-51
2022/11/05 01:54:03;;;;;;;;;4.00;4.00;;;;;21.01;42.70;101374.09;5061449;28;45777;-50
2022/11/05 01:56:38;;;;;;;;;4.25;4.00;;;;;21.05;42.61;101379.25;5080265;28;45185;-50
2022/11/05 01:59:15;;;;;;;;;5.00;5.00;;;;;21.08;42.49;101373.81;5079164;28;45663;-48
2022/11/05 02:01:40;;;;;;;;;6.50;4.25;;;;;21.06;42.83;101378.31;5054810;28;45279;-52
2022/11/05 02:04:13;;;;;;;;;3.75;3.75;;;;;21.10;42.46;101383.34;5060830;28;45232;-51
2022/11/05 02:06:45;;;;;;;;;2.50;1.00;;;;;21.11;42.68;101374.53;5062578;28;45231;-51
2022/11/05 02:09:13;;;;;;;;;5.00;4.00;;;;;21.14;42.45;101370.88;5060365;28;45569;-50
2022/11/05 02:11:39;;;;;;;;;5.00;5.00;;;;;21.16;42.38;101369.03;5059248;28;45768;-48
2022/11/05 02:14:04;;;;;;;;;3.00;3.00;;;;;21.16;42.61;101372.53;5067119;28;45126;-49
2022/11/05 02:16:56;;;;;;;;;5.00;5.00;;;;;21.20;42.65;101364.44;5073684;28;45326;-51
2022/11/05 02:19:30;;;;;;;;;4.00;3.75;;;;;21.19;42.48;101374.16;5061877;28;46614;-53
2022/11/05 02:22:17;;;;;;;;;4.00;4.00;;;;;21.21;42.07;101377.56;5059157;28;45963;-50
2022/11/05 02:25:16;;;;;;;;;4.00;4.00;;;;;21.22;42.14;101365.22;5059099;28;45464;-50
2022/11/05 02:27:53;;;;;;;;;5.50;5.00;;;;;21.23;42.26;101369.56;5058532;28;45462;-51
2022/11/05 02:30:18;;;;;;;;;3.50;3.50;;;;;21.23;42.21;101366.94;5059264;28;46317;-52
2022/11/05 02:33:13;;;;;;;;;4.67;4.00;;;;;21.23;42.39;101383.59;5059192;28;45436;-49
2022/11/05 02:35:54;;;;;;;;;4.50;4.00;;;;;21.23;42.15;101378.31;5058822;28;45314;-51
2022/11/05 02:38:28;;;;;;;;;4.00;4.00;;;;;21.21;42.39;101385.47;5058233;28;45760;-51
2022/11/05 02:40:59;;;;;;;;;3.25;3.25;;;;;21.21;41.95;101380.22;5059644;28;46392;-50
2022/11/05 02:43:39;;;;;;;;;3.00;3.00;;;;;21.21;41.99;101384.59;5061865;28;45801;-47
2022/11/05 02:46:13;;;;;;;;;3.00;3.00;;;;;21.19;42.23;101375.91;5058899;28;45256;-50
2022/11/05 02:48:49;;;;;;;;;5.00;3.50;;;;;21.20;42.14;101373.22;5059243;28;45320;-50
2022/11/05 02:51:23;;;;;;;;;4.00;3.00;;;;;21.19;42.22;101382.06;5042961;28;47420;-52
2022/11/05 02:54:11;;;;;;;;;5.00;5.00;;;;;21.19;42.57;101376.78;5066863;28;45243;-51
2022/11/05 02:56:42;;;;;;;;;2.25;2.25;;;;;21.19;42.18;101370.66;5061218;28;45345;-50
2022/11/05 02:59:08;;;;;;;;;4.00;4.00;;;;;21.17;42.18;101371.56;5059305;28;45283;-53
2022/11/05 03:01:36;;;;;;;;;4.00;4.00;;;;;21.16;42.03;101366.38;5058322;28;45541;-52
2022/11/05 03:04:05;;;;;;;;;4.50;3.75;;;;;21.18;42.25;101372.44;5059239;28;45839;-50
2022/11/05 03:06:52;;;;;;;;;5.00;3.50;;;;;21.18;42.09;101375.06;5059076;28;45379;-52
2022/11/05 03:09:35;;;;;;;;;4.00;4.00;;;;;21.17;42.09;101360.19;5060675;28;45635;-52
2022/11/05 03:12:28;;;;;;;;;4.75;4.00;;;;;21.16;42.15;101367.25;5065200;28;45367;-50
2022/11/05 03:15:17;;;;;;;;;4.75;3.25;;;;;21.14;42.16;101369.13;5058338;28;45816;-49
2022/11/05 03:18:06;;;;;;;;;3.75;3.25;;;;;21.14;42.51;101368.25;5058410;28;45380;-49
2022/11/05 03:21:14;;;;;;;;;8.25;4.50;;;;;21.15;42.17;101369.94;5059114;28;45362;-49
2022/11/05 03:23:42;;;;;;;;;4.00;3.75;;;;;21.14;42.45;101362.97;5061650;28;45398;-51
2022/11/05 03:26:21;;;;;;;;;3.25;3.25;;;;;21.13;42.23;101362.13;5067873;28;45492;-52
2022/11/05 03:28:51;;;;;;;;;7.75;4.75;;;;;21.12;42.31;101364.81;5070487;28;45473;-52
2022/11/05 03:31:19;;;;;;;;;4.00;4.00;;;;;21.10;42.48;101366.69;5078012;28;44714;-51
2022/11/05 03:33:47;;;;;;;;;4.00;4.00;;;;;21.11;42.20;101361.34;5075419;28;46519;-53
2022/11/05 03:36:36;;;;;;;;;3.25;3.25;;;;;21.12;42.05;101364.81;5074781;28;45814;-50
2022/11/05 03:39:05;;;;;;;;;3.00;3.00;;;;;21.12;42.21;101372.72;5068726;28;45223;-52
2022/11/05 03:41:33;;;;;;;;;3.50;3.00;;;;;21.10;42.07;101366.69;5061649;28;45276;-54
2022/11/05 03:44:04;;;;;;;;;5.00;4.00;;;;;21.08;42.33;101364.13;5058856;28;45435;-53
2022/11/05 03:46:36;;;;;;;;;4.25;3.00;;;;;21.09;42.05;101354.44;5060815;28;45659;-48
2022/11/05 03:49:04;;;;;;;;;3.00;3.00;;;;;21.07;42.07;101351.88;5070530;28;45164;-48
2022/11/05 03:51:49;;;;;;;;;3.00;3.00;;;;;21.09;42.19;101354.44;5075709;28;45280;-50
2022/11/05 03:54:15;;;;;;;;;4.00;4.00;;;;;21.07;42.22;101351.88;5058162;28;45372;-49
2022/11/05 03:57:09;;;;;;;;;3.00;3.00;;;;;21.07;42.47;101348.41;5057346;28;45878;-51
2022/11/05 03:59:41;;;;;;;;;4.50;3.50;;;;;21.05;42.28;101353.75;5057562;28;45372;-50
2022/11/05 04:02:07;;;;;;;;;3.50;3.50;;;;;21.05;42.38;101360.78;5057761;28;45291;-48
2022/11/05 04:04:33;;;;;;;;;1.00;0.00;;;;;21.05;42.39;101360.78;5059888;28;45468;-51
2022/11/05 04:15:12;;;;;;;;;2.50;2.50;;;;;21.00;42.09;101356.59;5056981;28;45767;-52
2022/11/05 04:17:38;;;;;;;;;3.00;2.75;;;;;21.00;42.66;101358.38;5057233;28;45906;-53
2022/11/05 04:25:32;;;;;;;;;3.00;3.00;;;;;20.98;42.38;101369.00;5057057;28;45286;-47
2022/11/05 04:27:59;;;;;;;;;2.00;2.00;;;;;20.97;42.13;101374.34;5057376;28;45341;-48
2022/11/05 04:30:25;;;;;;;;;3.50;3.50;;;;;20.96;42.14;101370.88;5056530;28;45351;-51
2022/11/05 04:33:19;;;;;;;;;3.50;2.50;;;;;20.96;41.95;101375.25;5061043;28;45223;-51
2022/11/05 04:35:47;;;;;;;;;3.00;3.00;;;;;20.96;42.36;101373.50;5044025;28;47312;-51
2022/11/05 04:38:16;;;;;;;;;6.25;4.50;;;;;20.94;42.34;101377.97;5038831;28;45965;-48
2022/11/05 04:40:42;;;;;;;;;2.25;2.25;;;;;20.92;42.42;101385.09;5057052;28;45264;-47
2022/11/05 04:43:12;;;;;;;;;3.75;3.75;;;;;20.93;42.23;101380.72;5061639;28;45553;-53
2022/11/05 04:45:37;;;;;;;;;4.00;2.50;;;;;20.90;42.13;101373.78;5064724;28;45433;-50
2022/11/05 04:48:03;;;;;;;;;3.50;3.50;;;;;20.91;42.00;101372.00;5059211;28;45937;-48
2022/11/05 04:50:28;;;;;;;;;1.25;1.25;;;;;20.90;42.35;101368.50;5057301;28;45429;-47
2022/11/05 04:52:54;;;;;;;;;2.75;2.75;;;;;20.88;42.11;101367.75;5056979;28;45311;-47
2022/11/05 04:55:19;;;;;;;;;4.00;3.00;;;;;20.87;41.94;101368.69;5056644;28;46396;-52
2022/11/05 04:57:53;;;;;;;;;3.00;3.00;;;;;20.87;42.18;101380.97;5056985;28;45402;-50
2022/11/05 05:00:20;;;;;;;;;2.00;2.00;;;;;20.87;41.90;101380.97;5061271;28;45318;-48
2022/11/05 05:02:46;;;;;;;;;3.75;3.00;;;;;20.85;42.07;101381.06;5064825;28;45579;-53
2022/11/05 05:05:12;;;;;;;;;3.00;3.00;;;;;20.84;42.06;101392.53;5056874;28;45282;-52
2022/11/05 05:07:38;;;;;;;;;3.50;2.25;;;;;20.82;42.20;101391.75;5056603;28;45251;-50
2022/11/05 05:10:05;;;;;;;;;5.00;2.25;;;;;20.82;42.17;101394.38;5056653;28;45402;-50
2022/11/05 05:12:31;;;;;;;;;1.75;1.75;;;;;20.82;42.61;101400.53;5057303;28;45544;-50
2022/11/05 05:14:56;;;;;;;;;3.75;3.75;;;;;20.82;41.94;101404.91;5056668;28;45598;-51
2022/11/05 05:17:22;;;;;;;;;4.75;3.00;;;;;20.78;42.05;101404.22;5056202;28;45418;-50
2022/11/05 05:22:31;;;;;;;;;4.00;3.00;;;;;20.79;42.46;101410.31;5064026;28;45429;-52
2022/11/05 05:24:58;;;;;;;;;3.25;3.25;;;;;20.77;42.27;101406.94;5059242;28;46015;-52
2022/11/05 05:27:24;;;;;;;;;3.00;3.00;;;;;20.77;42.33;101413.03;5057515;28;45268;-50
2022/11/05 05:29:50;;;;;;;;;4.00;2.00;;;;;20.77;42.06;101406.94;5062717;28;45446;-52
2022/11/05 05:32:15;;;;;;;;;2.00;2.00;;;;;20.77;41.95;101410.41;5061339;28;45521;-52
2022/11/05 05:34:40;;;;;;;;;3.00;3.00;;;;;20.74;42.35;101407.91;5056579;28;45464;-53
2022/11/05 05:37:06;;;;;;;;;3.00;3.00;;;;;20.77;42.31;101412.19;5062447;28;45433;-53
2022/11/05 05:39:31;;;;;;;;;2.00;2.00;;;;;20.74;42.34;101412.31;5069865;28;45298;-50
2022/11/05 05:41:56;;;;;;;;;4.00;4.00;;;;;20.72;42.13;101408.88;5071586;28;44905;-51
2022/11/05 05:44:22;;;;;;;;;3.50;3.00;;;;;20.73;41.92;101405.31;5068151;28;45296;-49
2022/11/05 05:46:47;;;;;;;;;2.00;2.00;;;;;20.70;42.26;101406.34;5059961;28;45235;-45
2022/11/05 05:49:12;;;;;;;;;2.00;2.00;;;;;20.69;41.89;101405.47;5060123;28;45289;-50
2022/11/05 05:51:38;;;;;;;;;3.75;3.50;;;;;20.68;42.13;101409.03;5059784;28;45350;-54
2022/11/05 05:54:03;;;;;;;;;3.50;3.50;;;;;20.70;41.77;101408.97;5059650;28;45546;-49
2022/11/05 05:56:29;;;;;;;;;2.00;2.00;;;;;20.68;41.81;101402.91;5062513;28;45268;-50
2022/11/05 05:58:54;;;;;;;;;3.25;3.25;;;;;20.68;41.62;101408.19;5067349;28;45272;-52
2022/11/05 06:01:20;;;;;;;;;4.00;3.00;;;;;20.67;42.20;101409.09;5063387;28;53555;-53
2022/11/05 06:03:47;;;;;;;;;8.25;7.00;;;;;20.65;42.33;101403.91;5060666;28;46568;-52
2022/11/05 06:06:13;;;;;;;;;11.25;10.75;;;;;20.65;42.15;101417.09;5059086;28;45433;-51
2022/11/05 06:08:40;;;;;;;;;16.25;16.25;;;;;20.64;42.05;101418.00;5059530;28;45666;-49
2022/11/05 06:11:06;;;;;;;;;23.25;22.25;;;;;20.66;42.09;101421.44;5059768;28;45327;-51
2022/11/05 06:13:32;;;;;;;;;24.50;23.25;;;;;20.68;41.97;101424.81;5059490;28;46307;-52
2022/11/05 06:16:04;;;;;;;;;29.50;25.00;;;;;20.67;42.35;101412.56;5059559;28;45330;-52
2022/11/05 06:18:30;;;;;;;;;28.50;22.75;;;;;20.66;42.05;101416.16;5059992;28;45825;-53
2022/11/05 06:21:14;;;;;;;;;29.75;28.00;;;;;20.69;42.08;101423.91;5062950;28;45638;-52
2022/11/05 06:23:41;;;;;;;;;29.75;26.00;;;;;20.65;42.00;101417.09;5066817;28;46414;-51
2022/11/05 06:26:12;;;;;;;;;31.25;28.75;;;;;20.67;42.00;101428.38;5066181;28;45349;-54
2022/11/05 06:28:38;;;;;;;;;29.00;24.00;;;;;20.66;41.98;101424.06;5062062;28;45423;-51
2022/11/05 06:31:04;;;;;;;;;25.25;23.50;;;;;20.65;42.13;101422.34;5059777;28;45359;-50
2022/11/05 06:33:30;;;;;;;;;28.00;21.00;;;;;20.66;42.09;101434.59;5063718;28;46328;-54
2022/11/05 06:35:59;;;;;;;;;28.25;25.75;;;;;20.65;41.92;101440.78;5063813;28;45831;-50
2022/11/05 06:38:25;;;;;;;;;28.75;26.75;;;;;20.64;41.92;101431.19;5060201;28;45321;-48
2022/11/05 06:40:50;;;;;;;;;22.75;22.00;;;;;20.63;42.05;101428.59;5060443;28;45239;-54
2022/11/05 06:43:15;;;;;;;;;27.33;24.33;;;;;20.63;41.77;101437.38;5070653;28;53607;-53
2022/11/05 06:45:41;;;;;;;;;25.75;24.25;;;;;20.62;42.06;101434.78;5068415;28;45294;-50
2022/11/05 06:48:06;;;;;;;;;23.00;22.50;;;;;20.61;42.08;101425.19;5060287;28;45412;-49
2022/11/05 06:50:32;;;;;;;;;21.00;20.50;;;;;20.61;42.31;101423.41;5060888;28;45417;-48
2022/11/05 06:52:59;;;;;;;;;27.50;24.00;;;;;20.60;42.42;101434.88;5065904;28;45467;-50
2022/11/05 06:55:27;;;;;;;;;22.25;20.50;;;;;20.60;42.01;101442.75;5058916;28;45348;-54
2022/11/05 06:57:53;;;;;;;;;20.75;19.75;;;;;20.59;41.93;101451.59;5058097;28;45595;-53
2022/11/05 07:00:18;;;;;;;;;21.75;19.00;;;;;20.57;41.88;101435.00;5058388;28;45320;-54
2022/11/05 07:02:44;;;;;;;;;21.25;21.25;;;;;20.58;41.89;101444.59;5058143;28;47103;-51
2022/11/05 07:05:10;;;;;;;;;20.75;18.50;;;;;20.58;41.89;101443.78;5057938;28;45331;-50
2022/11/05 07:07:39;;;;;;;;;15.75;15.75;;;;;20.58;42.17;101444.59;5058933;28;45452;-47
2022/11/05 07:10:07;;;;;;;;;17.00;15.25;;;;;20.57;41.99;101452.59;5044061;28;45334;-51
2022/11/05 07:12:33;;;;;;;;;18.75;17.75;;;;;20.57;41.89;101463.13;5066143;28;46266;-51
2022/11/05 07:14:58;;;;;;;;;19.75;16.75;;;;;20.55;42.18;101453.50;5064127;28;45298;-51
2022/11/05 07:17:23;;;;;;;;;19.75;18.50;;;;;20.55;42.05;101452.69;5058764;28;50611;-51
2022/11/05 07:19:48;;;;;;;;;19.25;18.00;;;;;20.54;41.77;101451.81;5064396;28;46063;-54
2022/11/05 07:22:14;;;;;;;;;20.75;19.00;;;;;20.53;41.73;101454.53;5062917;28;55429;-54
2022/11/05 07:24:39;;;;;;;;;18.25;16.25;;;;;20.54;41.72;101466.75;5057544;28;45320;-50
2022/11/05 07:27:04;;;;;;;;;17.25;16.25;;;;;20.54;42.17;101458.88;5058346;28;45284;-49
2022/11/05 07:29:30;;;;;;;;;17.00;17.00;;;;;20.53;42.11;101457.16;5057311;28;51210;-52
2022/11/05 07:31:55;;;;;;;;;21.25;18.75;;;;;20.53;42.24;101457.16;5058017;28;46398;-51
2022/11/05 07:34:20;;;;;;;;;15.75;14.75;;;;;20.52;42.13;101451.00;5057978;28;45323;-50
2022/11/05 07:36:46;;;;;;;;;16.00;15.25;;;;;20.51;42.38;101459.00;5057888;28;45300;-46
2022/11/05 07:39:11;;;;;;;;;16.25;14.25;;;;;20.51;42.20;101470.38;5074083;28;45485;-52
2022/11/05 07:41:36;;;;;;;;;15.50;15.25;;;;;20.51;42.25;101477.44;5076590;28;45340;-51
2022/11/05 07:44:02;;;;;;;;;14.25;14.25;;;;;20.50;42.04;101473.94;5073429;28;51249;-48
2022/11/05 07:46:28;;;;;;;;;13.50;10.50;;;;;20.50;41.83;101481.84;5069896;28;45373;-51
2022/11/05 07:48:54;;;;;;;;;13.00;12.75;;;;;20.51;42.25;101487.97;5068690;28;45310;-51
2022/11/05 07:51:20;;;;;;;;;14.25;12.75;;;;;20.49;42.11;101474.00;5064208;28;45597;-54
2022/11/05 07:53:47;;;;;;;;;13.25;11.75;;;;;20.49;41.83;101471.38;5065714;28;45350;-49
2022/11/05 07:56:13;;;;;;;;;12.25;11.75;;;;;20.46;41.34;101468.88;5061788;28;45133;-50
2022/11/05 07:58:38;;;;;;;;;14.00;10.50;;;;;20.38;41.26;101477.97;5057922;28;45188;-52
2022/11/05 08:01:03;;;;;;;;;12.00;11.00;;;;;20.38;41.98;101479.75;5057059;28;63027;-54
2022/11/05 08:03:28;;;;;;;;;12.25;11.00;;;;;20.35;41.61;101472.84;5057781;28;45165;-53
2022/11/05 08:05:54;;;;;;;;;8.00;8.00;;;;;20.28;41.11;101473.19;5057041;28;50308;-51
2022/11/05 08:08:19;;;;;;;;;8.75;7.00;;;;;20.21;41.62;101475.25;5057947;28;45406;-49
2022/11/05 08:10:45;;;;;;;;;8.00;7.00;;;;;20.15;40.84;101478.13;5058534;28;46343;-46
2022/11/05 08:13:11;;;;;;;;;8.00;8.00;;;;;20.12;41.65;101473.03;5060108;28;45262;-56
2022/11/05 08:15:37;;;;;;;;;10.00;7.00;;;;;20.11;41.50;101479.19;5063771;28;45303;-51
2022/11/05 08:18:04;;;;;;;;;6.25;6.25;;;;;20.12;40.77;101481.75;5060796;28;45851;-49
2022/11/05 08:20:30;;;;;;;;;7.75;7.75;;;;;20.11;40.86;101479.19;5057196;28;45346;-49
2022/11/05 08:22:56;;;;;;;;;7.00;7.00;;;;;20.07;40.86;101487.22;5058284;28;45443;-48
2022/11/05 08:25:22;;;;;;;;;9.00;6.50;;;;;20.07;41.22;101484.59;5065064;28;45331;-50
2022/11/05 08:27:54;;;;;;;;;6.00;6.00;;;;;20.06;40.55;101474.97;5064304;28;45223;-47
2022/11/05 08:30:20;;;;;;;;;7.00;7.00;;;;;20.07;41.12;101478.44;5059742;28;45494;-49
2022/11/05 08:32:45;;;;;;;;;12.00;6.50;;;;;20.09;40.86;101479.25;5057218;28;45339;-50
2022/11/05 09:41:54;;;;;;;;;4.25;3.00;;;;;20.01;40.57;101482.19;5038501;28;45422;-56
2022/11/05 09:44:46;;;;;;;;;4.75;3.75;;;;;20.03;40.62;101483.00;5042063;28;45417;-52
2022/11/05 09:47:19;;;;;;;;;3.25;2.75;;;;;20.05;40.88;101482.94;5062498;28;47029;-56
2022/11/05 09:49:50;;;;;;;;;3.50;3.00;;;;;20.05;40.28;101483.78;5068069;28;45397;-55
2022/11/05 09:52:21;;;;;;;;;5.00;3.00;;;;;20.06;40.70;101484.66;5057726;28;45485;-54
2022/11/05 09:54:47;;;;;;;;;2.00;2.00;;;;;20.06;40.48;101490.78;5058911;28;45501;-53
2022/11/05 09:57:26;;;;;;;;;3.50;2.00;;;;;20.05;40.55;101483.78;5058415;28;46951;-56
2022/11/05 09:59:55;;;;;;;;;3.75;3.00;;;;;20.04;40.14;101487.34;5058516;28;45452;-52
2022/11/05 10:02:25;;;;;;;;;4.00;3.00;;;;;20.07;40.47;101486.34;5059525;28;45186;-58
2022/11/05 10:04:56;;;;;;;;;3.50;2.00;;;;;20.06;40.33;101490.78;5062940;28;45340;-58
2022/11/05 10:07:28;;;;;;;;;2.00;2.00;;;;;20.07;40.65;101488.97;5070774;28;46076;-56
2022/11/05 10:10:01;;;;;;;;;3.25;2.25;;;;;20.05;40.23;101489.06;5082793;28;45474;-55
2022/11/05 10:12:43;;;;;;;;;2.00;2.00;;;;;20.05;40.22;101481.16;5080124;28;44826;-55
2022/11/05 10:15:18;;;;;;;;;3.25;2.00;;;;;20.04;40.01;101484.72;5079661;28;45366;-56
2022/11/05 10:17:49;;;;;;;;;2.00;2.00;;;;;20.02;40.55;101476.03;5084755;28;45166;-55
2022/11/05 10:20:23;;;;;;;;;1.75;1.00;;;;;20.03;40.30;101471.63;5078308;28;45292;-58
2022/11/05 10:22:55;;;;;;;;;1.75;1.75;;;;;20.00;39.99;101475.25;5082923;28;44764;-52
2022/11/05 10:25:23;;;;;;;;;3.25;1.75;;;;;20.00;40.01;101484.91;5084326;28;45943;-55
2022/11/05 10:27:54;;;;;;;;;3.00;1.25;;;;;20.00;40.46;101480.53;5084567;28;45253;-55
2022/11/05 10:30:20;;;;;;;;;3.50;2.00;;;;;19.95;40.41;101485.09;5087344;28;45028;-55
2022/11/05 10:32:47;;;;;;;;;1.25;1.25;;;;;19.97;40.59;101485.91;5083549;28;44745;-54
2022/11/05 10:35:21;;;;;;;;;4.00;3.00;;;;;19.97;40.33;101485.03;5076396;28;45309;-55
2022/11/05 10:37:47;;;;;;;;;2.00;2.00;;;;;19.98;40.57;101492.00;5077344;28;46020;-54
2022/11/05 10:40:36;;;;;;;;;2.00;1.00;;;;;19.95;40.42;101487.75;5070464;28;45311;-54
2022/11/05 10:43:16;;;;;;;;;4.00;2.00;;;;;19.95;40.10;101487.75;5066106;28;45239;-54
2022/11/05 10:46:23;;;;;;;;;2.00;1.00;;;;;19.95;40.22;101490.38;5060528;28;45288;-55
2022/11/05 10:48:51;;;;;;;;;2.00;2.00;;;;;19.95;40.14;101497.41;5039594;28;46355;-55
2022/11/05 10:51:18;;;;;;;;;5.75;2.00;;;;;19.89;40.41;101486.22;5061625;28;45233;-55
2022/11/05 10:53:56;;;;;;;;;1.50;1.50;;;;;19.91;40.09;101494.03;5063597;28;45473;-55
2022/11/05 10:56:27;;;;;;;;;2.00;2.00;;;;;19.93;40.04;101506.22;5060129;28;45424;-55
2022/11/05 10:58:56;;;;;;;;;2.00;2.00;;;;;19.92;40.55;101499.25;5059812;28;45315;-55
2022/11/05 11:01:23;;;;;;;;;1.50;1.50;;;;;19.90;40.40;101495.81;5078551;28;45324;-54
2022/11/05 11:03:51;;;;;;;;;1.25;1.00;;;;;19.88;40.45;101491.56;5074666;28;45231;-54
2022/11/05 11:06:29;;;;;;;;;1.00;1.00;;;;;19.89;40.50;101499.38;5073725;28;45185;-56
2022/11/05 11:08:58;;;;;;;;;3.00;1.25;;;;;19.91;40.68;101499.31;5074896;28;47464;-54
2022/11/05 11:11:26;;;;;;;;;2.00;2.00;;;;;19.90;40.53;101495.81;5060829;28;45610;-55
2022/11/05 11:14:04;;;;;;;;;3.00;2.00;;;;;19.89;40.22;101485.38;5059617;28;45340;-55
2022/11/05 11:16:39;;;;;;;;;2.00;2.00;;;;;19.88;40.19;101481.03;5061986;28;45437;-55
2022/11/05 11:19:20;;;;;;;;;2.75;2.00;;;;;19.88;40.07;101475.78;5071176;28;46202;-54
2022/11/05 11:21:46;;;;;;;;;2.25;2.25;;;;;19.89;40.08;101475.69;5058818;28;45751;-56
2022/11/05 11:24:22;;;;;;;;;1.50;1.50;;;;;19.91;40.89;101471.22;5058323;28;45282;-57
2022/11/05 11:26:47;;;;;;;;;3.00;1.50;;;;;19.92;40.47;101478.22;5064901;28;45224;-54
2022/11/05 11:29:18;;;;;;;;;3.25;2.00;;;;;19.98;40.33;101465.69;5074915;28;46083;-54
2022/11/05 11:31:44;;;;;;;;;2.00;2.00;;;;;20.01;40.79;101469.03;5073149;28;45341;-54
2022/11/05 11:34:13;;;;;;;;;2.00;2.00;;;;;20.05;40.54;101462.75;5071637;28;45327;-54
2022/11/05 11:36:44;;;;;;;;;2.00;2.00;;;;;20.10;40.31;101464.34;5065557;28;45233;-55
2022/11/05 11:39:16;;;;;;;;;1.75;1.00;;;;;20.15;40.77;101467.59;5062019;28;46036;-55
2022/11/05 11:41:43;;;;;;;;;4.00;2.00;;;;;20.18;40.84;101451.69;5063595;28;45449;-55
2022/11/05 11:44:17;;;;;;;;;2.00;2.00;;;;;20.24;40.37;101462.81;5064263;28;45322;-55
2022/11/05 11:46:47;;;;;;;;;1.75;1.75;;;;;20.29;40.13;101451.19;5064460;28;45401;-55
2022/11/05 11:49:35;;;;;;;;;2.00;2.00;;;;;20.32;40.26;101451.94;5061659;28;46344;-53
2022/11/05 11:52:04;;;;;;;;;3.00;1.00;;;;;20.36;40.79;101453.50;5056801;28;46148;-55
2022/11/05 11:54:32;;;;;;;;;2.00;2.00;;;;;20.39;40.69;101466.53;5071936;28;45295;-52
2022/11/05 11:56:57;;;;;;;;;2.25;1.50;;;;;20.44;40.82;101457.56;5076501;28;45306;-53
2022/11/05 11:59:25;;;;;;;;;2.50;2.00;;;;;20.46;40.41;101450.44;5070155;28;45356;-53
2022/11/05 12:02:05;;;;;;;;;2.25;2.25;;;;;20.49;40.37;101455.56;5058333;28;45436;-54
2022/11/05 12:05:18;;;;;;;;;3.50;2.00;;;;;20.52;40.48;101455.44;5057526;28;45306;-52
2022/11/05 12:07:53;;;;;;;;;2.00;2.00;;;;;20.54;40.45;101453.59;5012081;28;45601;-52
2022/11/05 12:10:21;;;;;;;;;3.00;2.00;;;;;20.58;40.59;101460.41;5057230;28;46449;-52
2022/11/05 12:13:17;;;;;;;;;2.00;2.00;;;;;20.61;40.48;101456.81;5057878;28;45748;-54
2022/11/05 12:15:53;;;;;;;;;3.50;2.00;;;;;20.61;40.39;101449.75;5057100;28;45248;-54
2022/11/05 12:18:42;;;;;;;;;3.25;1.75;;;;;20.61;40.66;101439.22;5058527;28;45276;-54
2022/11/05 12:21:26;;;;;;;;;2.00;2.00;;;;;20.64;40.96;101439.06;5057735;28;45445;-51
2022/11/05 12:24:14;;;;;;;;;1.00;1.00;;;;;20.65;40.25;101435.53;5058312;28;45404;-54
2022/11/05 12:26:54;;;;;;;;;3.25;2.00;;;;;20.64;40.44;101432.94;5058049;28;45869;-54
2022/11/05 12:29:31;;;;;;;;;4.50;2.00;;;;;20.65;40.99;101425.00;5065808;28;45348;-57
2022/11/05 12:32:15;;;;;;;;;3.00;2.00;;;;;20.68;40.81;101429.25;5056476;28;46064;-55
2022/11/05 12:34:46;;;;;;;;;2.25;2.00;;;;;20.70;41.16;101422.97;5053996;28;45759;-54
2022/11/05 12:37:44;;;;;;;;;2.00;1.00;;;;;20.72;40.91;101424.69;5056364;28;45358;-51
2022/11/05 12:40:40;;;;;;;;;2.50;2.00;;;;;20.67;41.03;101417.00;5073527;28;45339;-52
2022/11/05 12:43:24;;;;;;;;;3.00;2.00;;;;;20.73;40.60;101419.34;5069268;28;46145;-49
2022/11/05 12:46:13;;;;;;;;;2.00;2.00;;;;;20.74;40.80;101417.56;5059369;28;45605;-52
2022/11/05 12:48:47;;;;;;;;;2.00;2.00;;;;;20.74;41.23;101407.03;5058207;28;45322;-53
2022/11/05 12:51:24;;;;;;;;;2.00;2.00;;;;;20.75;40.99;101411.41;5060326;28;45793;-50
2022/11/05 12:53:59;;;;;;;;;2.50;2.00;;;;;20.76;41.02;101407.84;5068479;28;47036;-53
2022/11/05 12:56:42;;;;;;;;;2.00;2.00;;;;;20.76;40.96;101402.59;5082487;28;45110;-49
2022/11/05 12:59:23;;;;;;;;;1.75;1.75;;;;;20.77;40.57;101396.41;5060926;28;45369;-49
2022/11/05 13:02:05;;;;;;;;;2.00;1.75;;;;;20.70;40.72;101391.38;5056754;28;45358;-49
2022/11/05 13:04:53;;;;;;;;;3.00;1.00;;;;;20.75;40.85;101400.88;5056166;28;46360;-52
2022/11/05 13:07:24;;;;;;;;;1.75;1.50;;;;;20.75;41.16;101385.06;5056534;28;45456;-53
2022/11/05 13:10:04;;;;;;;;;3.00;2.00;;;;;20.68;40.95;101377.41;5057937;28;45279;-51
2022/11/05 13:12:36;;;;;;;;;2.00;2.00;;;;;20.74;40.90;101386.84;5065311;28;45508;-53
2022/11/05 13:15:27;;;;;;;;;3.75;2.75;;;;;20.73;41.04;101387.72;5078494;28;45098;-51
2022/11/05 13:18:04;;;;;;;;;3.00;3.00;;;;;20.67;40.83;101370.44;5061869;28;45434;-49
2022/11/05 13:20:37;;;;;;;;;2.00;2.00;;;;;20.72;40.78;101378.16;5078117;28;45271;-50
2022/11/05 13:23:22;;;;;;;;;1.75;1.50;;;;;20.68;41.10;101371.31;5061239;28;45351;-50
2022/11/05 13:26:15;;;;;;;;;3.00;2.00;;;;;20.73;40.88;101381.63;5057072;28;47027;-52